Time;durP1;ratioP1;P1;durP2;ratioP2;P2;SDS_P1;SDS_P2;PMS_P1;PMS_P2;Temp;Humidity;BMP_temperature;BMP_pressure;BME280_temperature;BME280_humidity;BME280_pressure;Samples;Min_cycle;Max_cycle;Signal;HPM_P1;HPM_P2
2024/02/07 00:00:59;;;;;;;0.00;0.00;;;;;;;9.92;100.00;99208.22;6254660;22;20314;-77
2024/02/07 00:03:25;;;;;;;0.00;0.00;;;;;;;9.96;100.00;99220.19;6231614;22;20007;-79
2024/02/07 00:05:50;;;;;;;0.00;0.00;;;;;;;10.05;100.00;99230.50;6227474;22;20018;-76
2024/02/07 00:08:16;;;;;;;0.00;0.00;;;;;;;10.10;100.00;99224.94;6254093;22;20003;-77
2024/02/07 00:10:44;;;;;;;0.00;0.00;;;;;;;10.05;100.00;99219.56;6254593;22;20367;-76
2024/02/07 00:13:10;;;;;;;0.00;0.00;;;;;;;10.03;100.00;99224.50;6280635;22;20004;-78
2024/02/07 00:15:39;;;;;;;0.00;0.00;;;;;;;10.09;100.00;99228.78;6230240;22;19999;-78
2024/02/07 00:18:04;;;;;;;0.00;0.00;;;;;;;10.01;100.00;99193.94;6280786;22;20011;-76
2024/02/07 00:20:29;;;;;;;0.00;0.00;;;;;;;10.02;100.00;99211.97;6280664;22;20011;-76
2024/02/07 00:22:55;;;;;;;0.00;0.00;;;;;;;10.05;100.00;99206.72;6250390;22;20011;-76
2024/02/07 00:25:20;;;;;;;0.10;0.10;;;;;;;10.06;100.00;99207.50;6282874;22;20007;-78
2024/02/07 00:27:46;;;;;;;0.00;0.00;;;;;;;10.15;100.00;99216.72;6279448;22;20079;-76
2024/02/07 00:30:11;;;;;;;0.00;0.00;;;;;;;10.10;100.00;99203.09;6306531;22;20030;-76
2024/02/07 00:32:37;;;;;;;0.00;0.00;;;;;;;10.18;100.00;99226.22;6256986;22;20011;-77
2024/02/07 00:35:02;;;;;;;0.00;0.00;;;;;;;10.14;100.00;99217.81;6279928;22;20022;-76
2024/02/07 00:37:28;;;;;;;0.00;0.00;;;;;;;10.19;100.00;99222.38;6255842;22;20038;-77
2024/02/07 00:39:53;;;;;;;0.00;0.00;;;;;;;10.20;100.00;99224.81;6279519;22;20003;-76
2024/02/07 00:42:19;;;;;;;0.00;0.00;;;;;;;10.20;100.00;99224.81;6231171;22;20303;-77
2024/02/07 00:44:44;;;;;;;0.00;0.00;;;;;;;10.21;100.00;99220.19;6282120;22;19999;-77
2024/02/07 00:47:11;;;;;;;0.00;0.00;;;;;;;10.22;100.00;99233.56;6231213;22;20010;-78
2024/02/07 00:49:39;;;;;;;0.00;0.00;;;;;;;10.05;100.00;99230.50;6258432;22;20007;-79
2024/02/07 00:52:05;;;;;;;0.00;0.00;;;;;;;9.90;100.00;99237.75;6256028;22;19987;-77
2024/02/07 00:54:31;;;;;;;0.00;0.00;;;;;;;9.74;100.00;99249.94;6285792;22;20015;-78
2024/02/07 00:57:07;;;;;;;0.00;0.00;;;;;;;9.54;100.00;99251.78;6280630;22;20007;-78
2024/02/07 00:59:32;;;;;;;0.00;0.00;;;;;;;9.38;100.00;99258.47;6283659;22;20029;-76
2024/02/07 01:01:57;;;;;;;0.00;0.00;;;;;;;9.17;100.00;99250.47;6255068;22;20057;-80
2024/02/07 01:04:23;;;;;;;0.00;0.00;;;;;;;8.98;100.00;99238.59;6258180;22;20489;-79
2024/02/07 01:06:48;;;;;;;0.00;0.00;;;;;;;8.90;100.00;99259.91;6255078;22;20018;-77
2024/02/07 01:09:14;;;;;;;0.00;0.00;;;;;;;8.76;100.00;99253.50;6230683;22;20007;-78
2024/02/07 01:11:39;;;;;;;0.00;0.00;;;;;;;8.71;100.00;99261.69;6231604;22;20062;-78
2024/02/07 01:14:04;;;;;;;0.00;0.00;;;;;;;8.53;100.00;99255.81;6255348;22;20030;-80
2024/02/07 01:16:30;;;;;;;0.00;0.00;;;;;;;8.40;100.00;99267.28;6259956;22;20015;-80
2024/02/07 01:18:55;;;;;;;0.00;0.00;;;;;;;8.17;100.00;99255.94;6259034;22;20008;-78
2024/02/07 01:21:21;;;;;;;0.00;0.00;;;;;;;8.07;100.00;99263.34;6278728;22;20017;-77
2024/02/07 01:23:46;;;;;;;0.00;0.00;;;;;;;8.00;100.00;99266.34;6256717;22;20234;-78
2024/02/07 01:26:15;;;;;;;0.00;0.00;;;;;;;7.97;100.00;99261.47;6255371;22;20708;-78
2024/02/07 01:28:43;;;;;;;0.10;0.10;;;;;;;7.83;100.00;99253.06;6257362;22;20007;-78
2024/02/07 01:31:08;;;;;;;0.00;0.00;;;;;;;7.83;100.00;99267.50;6280225;22;20007;-77
2024/02/07 01:33:42;;;;;;;0.00;0.00;;;;;;;7.72;100.00;99263.16;6308087;22;20019;-78
2024/02/07 01:36:11;;;;;;;0.00;0.00;;;;;;;7.66;100.00;99264.25;6280986;22;20063;-76
2024/02/07 01:38:36;;;;;;;0.10;0.10;;;;;;;7.43;100.00;99235.72;6307971;22;20008;-76
2024/02/07 01:41:02;;;;;;;0.00;0.00;;;;;;;7.56;100.00;99258.84;6230482;22;20055;-76
2024/02/07 01:43:33;;;;;;;0.00;0.00;;;;;;;7.52;100.00;99258.59;6253489;22;19991;-78
2024/02/07 01:45:59;;;;;;;0.00;0.00;;;;;;;7.58;100.00;99267.53;6258893;22;20010;-78
2024/02/07 01:48:25;;;;;;;0.00;0.00;;;;;;;7.55;100.00;99268.06;6278814;22;19999;-76
2024/02/07 01:50:52;;;;;;;0.00;0.00;;;;;;;7.42;100.00;99273.00;6281562;22;20078;-78
2024/02/07 01:53:18;;;;;;;0.00;0.00;;;;;;;7.35;100.00;99277.91;6255908;22;20018;-78
2024/02/07 01:55:44;;;;;;;0.00;0.00;;;;;;;7.26;100.00;99274.91;6284465;22;19999;-80
2024/02/07 01:58:10;;;;;;;0.10;0.10;;;;;;;7.22;100.00;99271.09;6284835;22;20003;-81
2024/02/07 02:00:36;;;;;;;0.00;0.00;;;;;;;7.22;100.00;99292.03;6257188;22;20520;-80
2024/02/07 02:03:03;;;;;;;0.00;0.00;;;;;;;7.18;100.00;99289.03;6285526;22;20006;-77
2024/02/07 02:05:29;;;;;;;0.10;0.10;;;;;;;7.12;100.00;99288.22;6280979;22;20007;-77
2024/02/07 02:07:57;;;;;;;0.00;0.00;;;;;;;6.98;100.00;99270.84;6255917;22;20013;-77
2024/02/07 02:10:23;;;;;;;0.00;0.00;;;;;;;7.03;100.00;99294.47;6307297;22;20021;-77
2024/02/07 02:12:49;;;;;;;0.10;0.10;;;;;;;6.93;100.00;99289.84;6304213;22;20056;-78
2024/02/07 02:15:15;;;;;;;0.00;0.00;;;;;;;6.91;100.00;99287.38;6276707;22;20003;-76
2024/02/07 02:17:41;;;;;;;0.10;0.10;;;;;;;6.87;100.00;99282.78;6276764;22;20015;-77
2024/02/07 02:20:07;;;;;;;0.00;0.00;;;;;;;6.85;100.00;99282.19;6281342;22;20018;-78
2024/02/07 02:23:04;;;;;;;0.10;0.10;;;;;;;6.89;100.00;99302.31;6278132;22;20010;-77
2024/02/07 02:25:43;;;;;;;0.00;0.00;;;;;;;6.77;100.00;99302.56;6306998;22;20010;-78
2024/02/07 02:28:24;;;;;;;0.00;0.00;;;;;;;6.81;100.00;99304.47;6305377;22;19999;-78
2024/02/07 02:30:56;;;;;;;0.00;0.00;;;;;;;6.86;100.00;99305.59;6282576;22;20334;-76
2024/02/07 02:33:23;;;;;;;0.00;0.00;;;;;;;6.85;100.00;99303.94;6307361;22;20090;-78
2024/02/07 02:35:50;;;;;;;0.00;0.00;;;;;;;6.85;100.00;99298.50;6282835;22;20007;-78
2024/02/07 02:38:18;;;;;;;0.00;0.00;;;;;;;6.89;100.00;99310.47;6276919;22;20007;-78
2024/02/07 02:40:43;;;;;;;0.10;0.10;;;;;;;6.91;100.00;99303.69;6280530;22;20029;-78
2024/02/07 02:43:12;;;;;;;0.10;0.10;;;;;;;6.89;100.00;99302.31;6252640;22;20069;-78
2024/02/07 02:45:38;;;;;;;0.00;0.00;;;;;;;6.85;100.00;99293.06;6279033;22;20377;-77
2024/02/07 02:48:04;;;;;;;0.00;0.00;;;;;;;6.91;100.00;99302.88;6305475;22;20033;-77
2024/02/07 02:50:31;;;;;;;0.00;0.00;;;;;;;6.84;100.00;99302.34;6279668;22;20100;-77
2024/02/07 02:52:58;;;;;;;0.00;0.00;;;;;;;6.84;100.00;99296.91;6282143;22;20027;-78
2024/02/07 02:55:24;;;;;;;0.00;0.00;;;;;;;6.80;100.00;99292.00;6277531;22;20136;-78
2024/02/07 02:57:50;;;;;;;0.00;0.00;;;;;;;6.86;100.00;99290.09;6256487;22;20049;-76
2024/02/07 03:00:20;;;;;;;0.10;0.10;;;;;;;6.90;100.00;99287.66;6304962;22;20029;-78
2024/02/07 03:02:46;;;;;;;0.00;0.00;;;;;;;6.89;100.00;99283.31;6257578;22;20070;-78
2024/02/07 03:08:15;;;;;;;0.10;0.10;;;;;;;6.81;100.00;99293.63;6309286;22;20041;-77
2024/02/07 03:10:41;;;;;;;0.10;0.10;;;;;;;6.82;100.00;99289.81;6279773;22;20086;-77
2024/02/07 03:13:08;;;;;;;0.10;0.10;;;;;;;6.80;100.00;99286.56;6278107;22;20038;-77
2024/02/07 03:15:34;;;;;;;0.00;0.00;;;;;;;6.73;100.00;99291.44;6256362;22;20003;-77
2024/02/07 03:18:00;;;;;;;0.00;0.00;;;;;;;6.74;100.00;99295.78;6279264;22;20018;-76
2024/02/07 03:20:26;;;;;;;0.00;0.00;;;;;;;6.66;100.00;99282.72;6255241;22;20011;-76
2024/02/07 03:22:54;;;;;;;0.00;0.00;;;;;;;6.64;100.00;99276.72;6278084;22;20014;-76
2024/02/07 03:25:20;;;;;;;0.00;0.00;;;;;;;6.61;100.00;99272.66;6281815;22;20018;-76
2024/02/07 03:27:47;;;;;;;0.00;0.00;;;;;;;6.67;100.00;99281.63;6306536;22;20003;-76
2024/02/07 03:30:17;;;;;;;0.00;0.00;;;;;;;6.52;100.00;99257.16;6308616;22;20011;-77
2024/02/07 03:32:43;;;;;;;0.00;0.00;;;;;;;6.56;100.00;99260.97;6281138;22;20004;-78
2024/02/07 03:35:09;;;;;;;0.05;0.05;;;;;;;6.62;100.00;99257.19;6281012;22;20003;-77
2024/02/07 03:37:35;;;;;;;0.00;0.00;;;;;;;6.68;100.00;99258.81;6309973;22;20010;-76
2024/02/07 03:40:00;;;;;;;0.00;0.00;;;;;;;6.60;100.00;99251.19;6280107;22;20350;-77
2024/02/07 03:42:26;;;;;;;0.00;0.00;;;;;;;6.63;100.00;99253.38;6282389;22;20064;-75
2024/02/07 03:44:58;;;;;;;0.00;0.00;;;;;;;6.59;100.00;99252.28;6280084;22;20007;-76
2024/02/07 03:47:24;;;;;;;0.00;0.00;;;;;;;6.58;100.00;99262.31;6280158;22;20000;-76
2024/02/07 03:49:53;;;;;;;0.00;0.00;;;;;;;6.58;100.00;99266.94;6253509;22;20011;-76
2024/02/07 03:52:19;;;;;;;0.00;0.00;;;;;;;6.60;100.00;99270.19;6282733;22;20360;-72
2024/02/07 03:54:50;;;;;;;0.00;0.00;;;;;;;6.58;100.00;99264.22;6277668;22;20011;-73
2024/02/07 03:57:22;;;;;;;0.00;0.00;;;;;;;6.60;100.00;99271.03;6276606;22;20133;-73
2024/02/07 03:59:49;;;;;;;0.00;0.00;;;;;;;6.60;100.00;99271.03;6226149;22;20011;-73
2024/02/07 04:02:21;;;;;;;0.00;0.00;;;;;;;6.56;100.00;99279.97;6275198;22;20031;-73
2024/02/07 04:04:56;;;;;;;0.00;0.00;;;;;;;6.49;100.00;99263.13;6254508;22;20453;-71
2024/02/07 04:07:25;;;;;;;0.00;0.00;;;;;;;6.54;100.00;99272.09;6275564;22;20513;-72
2024/02/07 04:09:52;;;;;;;0.00;0.00;;;;;;;6.51;100.00;99278.03;6252705;22;20050;-72
2024/02/07 05:17:25;;;;;;;0.00;0.00;;;;;;;6.32;100.00;99304.06;6257029;22;20008;-77
2024/02/07 05:20:11;;;;;;;0.00;0.00;;;;;;;6.26;100.00;99292.34;6278638;22;20007;-76
2024/02/07 05:22:37;;;;;;;0.00;0.00;;;;;;;6.25;100.00;99290.72;6279308;22;19999;-77
2024/02/07 05:25:04;;;;;;;0.00;0.00;;;;;;;6.30;100.00;99304.31;6256388;22;20072;-77
2024/02/07 05:27:32;;;;;;;0.00;0.00;;;;;;;6.31;100.00;99305.97;6283803;22;20003;-76
2024/02/07 05:29:57;;;;;;;0.00;0.00;;;;;;;6.29;100.00;99297.25;6282389;22;20026;-76
2024/02/07 05:32:22;;;;;;;0.00;0.00;;;;;;;6.24;100.00;99289.09;6256979;22;20004;-77
2024/02/07 05:34:48;;;;;;;0.00;0.00;;;;;;;6.27;100.00;99304.84;6256373;22;20019;-75
2024/02/07 05:37:13;;;;;;;0.00;0.00;;;;;;;6.23;100.00;99295.59;6257031;22;20014;-75
2024/02/07 05:39:39;;;;;;;0.00;0.00;;;;;;;6.18;100.00;99295.59;6255993;22;20007;-75
2024/02/07 05:42:07;;;;;;;0.00;0.00;;;;;;;6.21;100.00;99300.50;6280512;22;20011;-75
2024/02/07 05:44:33;;;;;;;0.00;0.00;;;;;;;6.17;100.00;99304.81;6255667;22;20019;-76
2024/02/07 05:47:01;;;;;;;0.10;0.10;;;;;;;6.16;100.00;99308.59;6255384;22;20010;-76
2024/02/07 05:49:27;;;;;;;0.00;0.00;;;;;;;6.13;100.00;99309.13;6281431;22;20011;-76
2024/02/07 05:51:58;;;;;;;0.10;0.10;;;;;;;6.06;100.00;99293.06;6256534;22;20008;-76
2024/02/07 05:54:27;;;;;;;0.00;0.00;;;;;;;6.18;100.00;99309.97;6285109;22;20015;-76
2024/02/07 05:56:53;;;;;;;0.00;0.00;;;;;;;6.16;100.00;99308.59;6308172;22;20030;-76
2024/02/07 05:59:19;;;;;;;0.00;0.00;;;;;;;6.18;100.00;99307.25;6258086;22;20319;-76
2024/02/07 06:01:45;;;;;;;0.00;0.00;;;;;;;6.25;100.00;99307.00;6280637;22;20003;-76
2024/02/07 06:04:11;;;;;;;0.00;0.00;;;;;;;6.19;100.00;99308.06;6306403;22;20069;-76
2024/02/07 06:06:37;;;;;;;0.10;0.10;;;;;;;6.17;100.00;99315.66;6229254;22;20426;-76
2024/02/07 06:09:05;;;;;;;0.00;0.00;;;;;;;6.13;100.00;99309.94;6278163;22;20603;-76
2024/02/07 06:11:32;;;;;;;0.00;0.00;;;;;;;6.07;100.00;99305.56;6253410;22;20015;-77
2024/02/07 06:14:04;;;;;;;0.00;0.00;;;;;;;5.98;100.00;99294.41;6280742;22;20060;-76
2024/02/07 06:16:34;;;;;;;0.00;0.00;;;;;;;6.06;100.00;99304.75;6227905;22;20034;-76
2024/02/07 06:19:03;;;;;;;0.10;0.10;;;;;;;5.98;100.00;99280.81;6284099;22;20007;-76
2024/02/07 06:21:32;;;;;;;0.00;0.00;;;;;;;6.06;100.00;99291.19;6309800;22;20011;-77
2024/02/07 06:24:00;;;;;;;0.00;0.00;;;;;;;6.06;100.00;99293.91;6281838;22;20000;-76
2024/02/07 06:26:29;;;;;;;0.00;0.00;;;;;;;6.01;100.00;99296.59;6282181;22;20007;-76
2024/02/07 06:28:54;;;;;;;0.00;0.00;;;;;;;5.98;100.00;99307.97;6256280;22;20086;-75
2024/02/07 06:31:20;;;;;;;0.00;0.00;;;;;;;5.91;100.00;99294.63;6255654;22;20015;-76
2024/02/07 06:33:46;;;;;;;0.00;0.00;;;;;;;5.91;100.00;99291.06;6283994;22;20022;-77
2024/02/07 06:36:11;;;;;;;0.10;0.10;;;;;;;5.94;100.00;99295.97;6308779;22;20007;-74
2024/02/07 06:38:37;;;;;;;0.00;0.00;;;;;;;5.97;100.00;99311.75;6307658;22;20033;-75
2024/02/07 06:41:11;;;;;;;0.00;0.00;;;;;;;5.89;100.00;99293.25;6228626;22;20010;-74
2024/02/07 06:43:42;;;;;;;0.10;0.10;;;;;;;5.87;100.00;99298.09;6281158;22;20034;-73
2024/02/07 06:46:10;;;;;;;0.00;0.00;;;;;;;5.91;100.00;99301.94;6260442;22;20046;-74
2024/02/07 06:48:35;;;;;;;0.00;0.00;;;;;;;5.99;100.00;99320.47;6283595;22;20040;-75
2024/02/07 06:51:06;;;;;;;0.10;0.10;;;;;;;6.02;100.00;99316.41;6257458;22;20011;-73
2024/02/07 06:53:34;;;;;;;0.00;0.00;;;;;;;5.97;100.00;99295.47;6253164;22;20014;-77
2024/02/07 06:55:59;;;;;;;0.10;0.10;;;;;;;5.92;100.00;99287.28;6308949;22;20008;-76
2024/02/07 06:58:30;;;;;;;0.10;0.10;;;;;;;5.86;100.00;99282.91;6228062;22;20071;-77
2024/02/07 07:00:58;;;;;;;0.05;0.05;;;;;;;5.89;100.00;99288.63;6279709;22;20078;-76
2024/02/07 07:03:27;;;;;;;0.00;0.00;;;;;;;5.89;100.00;99294.03;6256213;22;20030;-76
2024/02/07 07:06:03;;;;;;;;;;;;;;;;;;;;;
2024/02/07 07:08:51;;;;;;;;;;;;;;;;;;;;;
2024/02/07 07:11:17;;;;;;;0.00;0.00;;;;;;;5.77;100.00;99264.41;6283891;22;20071;-78
2024/02/07 07:13:46;;;;;;;0.00;0.00;;;;;;;5.79;100.00;99271.47;6306463;22;20345;-76
2024/02/07 07:16:11;;;;;;;0.00;0.00;;;;;;;5.84;100.00;99285.91;6307445;22;19996;-77
2024/02/07 07:18:39;;;;;;;0.00;0.00;;;;;;;5.83;100.00;99294.28;6253278;22;20110;-77
2024/02/07 07:21:05;;;;;;;0.00;0.00;;;;;;;5.80;100.00;99305.66;6276938;22;20003;-76
2024/02/07 07:23:33;;;;;;;0.00;0.00;;;;;;;5.71;100.00;99292.59;6307091;22;20132;-75
2024/02/07 07:26:00;;;;;;;0.00;0.00;;;;;;;5.70;100.00;99274.69;6255170;22;20085;-77
2024/02/07 07:29:34;;;;;;;0.00;0.00;;;;;;;5.76;100.00;99295.31;6276441;22;20054;-77
2024/02/07 07:32:09;;;;;;;0.00;0.00;;;;;;;5.56;100.00;99273.50;6084487;23;20013;-77
2024/02/07 07:34:34;;;;;;;0.00;0.00;;;;;;;5.53;100.00;99274.03;6296000;22;20090;-75
2024/02/07 07:37:01;;;;;;;0.10;0.10;;;;;;;5.66;100.00;99297.97;6279263;22;20038;-76
2024/02/07 07:39:27;;;;;;;0.00;0.00;;;;;;;5.69;100.00;99304.78;6254716;22;20007;-78
2024/02/07 07:41:52;;;;;;;0.00;0.00;;;;;;;5.60;100.00;99283.56;6276700;22;20117;-77
2024/02/07 07:44:18;;;;;;;0.00;0.00;;;;;;;5.71;100.00;99287.16;6306994;22;19999;-75
2024/02/07 07:46:49;;;;;;;0.00;0.00;;;;;;;5.81;100.00;99291.00;6250430;22;20011;-74
2024/02/07 07:49:23;;;;;;;0.10;0.10;;;;;;;5.86;100.00;99299.19;6277502;22;20007;-75
2024/02/07 07:51:58;;;;;;;0.00;0.00;;;;;;;5.58;100.00;99266.75;6304446;22;20014;-75
2024/02/07 07:54:35;;;;;;;0.00;0.00;;;;;;;5.60;100.00;99291.69;6287727;22;20015;-75
2024/02/07 07:57:03;;;;;;;0.00;0.00;;;;;;;5.56;100.00;99289.75;6255241;22;20335;-74
2024/02/07 07:59:31;;;;;;;0.00;0.00;;;;;;;5.56;100.00;99300.63;6256614;22;20031;-75
2024/02/07 08:02:00;;;;;;;0.00;0.00;;;;;;;5.56;100.00;99317.72;6256541;22;20086;-74
2024/02/07 08:04:28;;;;;;;0.00;0.00;;;;;;;5.47;100.00;99296.75;6257367;22;20011;-75
2024/02/07 08:06:55;;;;;;;0.00;0.00;;;;;;;5.57;100.00;99319.34;6257388;22;20421;-74
2024/02/07 08:09:24;;;;;;;0.00;0.00;;;;;;;5.60;100.00;99328.84;6282005;22;20421;-75
2024/02/07 08:11:53;;;;;;;0.00;0.00;;;;;;;5.66;100.00;99322.38;6283055;22;20006;-75
2024/02/07 08:14:18;;;;;;;0.10;0.10;;;;;;;5.71;100.00;99318.88;6306471;22;20495;-75
2024/02/07 08:16:46;;;;;;;0.00;0.00;;;;;;;5.65;100.00;99304.50;6253848;22;20007;-75
2024/02/07 08:19:14;;;;;;;0.00;0.00;;;;;;;5.69;100.00;99316.44;6280349;22;20003;-75
2024/02/07 08:21:57;;;;;;;0.00;0.00;;;;;;;5.77;100.00;99304.28;6255444;22;20012;-74
2024/02/07 08:24:26;;;;;;;0.00;0.00;;;;;;;5.75;100.00;99304.56;6278457;22;20064;-75
2024/02/07 08:26:51;;;;;;;0.00;0.00;;;;;;;5.75;100.00;99299.13;6257463;22;20007;-74
2024/02/07 08:29:19;;;;;;;0.00;0.00;;;;;;;5.74;100.00;99297.50;6281067;22;20017;-74
2024/02/07 08:31:45;;;;;;;0.00;0.00;;;;;;;5.81;100.00;99308.13;6254812;22;20014;-75
2024/02/07 08:34:10;;;;;;;0.00;0.00;;;;;;;5.68;100.00;99300.41;6308602;22;20011;-76
2024/02/07 08:36:35;;;;;;;0.00;0.00;;;;;;;5.79;100.00;99323.03;6281440;22;20709;-74
2024/02/07 08:39:01;;;;;;;0.00;0.00;;;;;;;5.67;100.00;99313.19;6311468;22;20076;-75
2024/02/07 08:41:27;;;;;;;0.00;0.00;;;;;;;5.87;100.00;99327.94;6281678;22;20025;-75
2024/02/07 08:43:52;;;;;;;0.00;0.00;;;;;;;5.92;100.00;99330.69;6275972;22;20022;-75
2024/02/07 08:46:18;;;;;;;0.03;0.03;;;;;;;5.94;100.00;99323.94;6280304;22;20039;-75
2024/02/07 08:48:46;;;;;;;0.00;0.00;;;;;;;6.01;100.00;99318.28;6231198;22;20011;-74
2024/02/07 08:51:12;;;;;;;0.00;0.00;;;;;;;6.09;100.00;99319.72;6309465;22;20034;-74
2024/02/07 08:53:38;;;;;;;0.00;0.00;;;;;;;6.16;100.00;99319.47;6254041;22;20007;-76
2024/02/07 08:56:11;;;;;;;0.00;0.00;;;;;;;6.14;100.00;99306.16;6282053;22;20011;-77
2024/02/07 08:58:38;;;;;;;0.10;0.10;;;;;;;6.19;100.00;99305.34;6254751;22;20053;-76
2024/02/07 09:01:06;;;;;;;0.00;0.00;;;;;;;6.19;100.00;99302.63;6281981;22;20418;-76
2024/02/07 09:03:32;;;;;;;0.10;0.10;;;;;;;6.21;100.00;99305.94;6281108;22;20090;-75
2024/02/07 09:05:57;;;;;;;0.10;0.10;;;;;;;6.31;100.00;99311.41;6279427;22;20397;-75
2024/02/07 09:08:23;;;;;;;0.00;0.00;;;;;;;6.30;100.00;99312.47;6232225;22;20003;-75
2024/02/07 09:10:48;;;;;;;0.10;0.10;;;;;;;6.38;100.00;99319.28;6278118;22;20007;-74
2024/02/07 09:13:16;;;;;;;0.00;0.00;;;;;;;6.51;100.00;99331.56;6277618;22;20333;-75
2024/02/07 09:15:41;;;;;;;0.00;0.00;;;;;;;6.57;100.00;99320.47;6254819;22;20061;-76
2024/02/07 09:18:13;;;;;;;0.10;0.10;;;;;;;6.52;100.00;99308.75;6279499;22;20364;-77
2024/02/07 09:20:41;;;;;;;0.00;0.00;;;;;;;6.42;100.00;99310.34;6279168;22;19999;-76
2024/02/07 09:23:07;;;;;;;0.00;0.00;;;;;;;6.26;100.00;99297.78;6306388;22;20010;-76
2024/02/07 09:25:35;;;;;;;0.10;0.10;;;;;;;6.32;100.00;99321.16;6255418;22;20019;-77
2024/02/07 09:28:01;;;;;;;0.00;0.00;;;;;;;6.20;100.00;99309.72;6307924;22;20388;-76
2024/02/07 09:30:26;;;;;;;0.00;0.00;;;;;;;6.25;100.00;99318.69;6259475;22;20018;-78
2024/02/07 09:33:02;;;;;;;0.10;0.10;;;;;;;6.23;100.00;99314.59;6253983;22;20031;-78
2024/02/07 09:35:36;;;;;;;0.00;0.00;;;;;;;6.34;100.00;99315.47;6281340;22;20021;-78
2024/02/07 09:38:02;;;;;;;0.00;0.00;;;;;;;6.34;100.00;99310.03;6229723;22;20014;-74
2024/02/07 09:40:27;;;;;;;0.00;0.00;;;;;;;6.27;100.00;99294.00;6255717;22;19999;-75
2024/02/07 09:42:53;;;;;;;0.00;0.00;;;;;;;6.47;100.00;99323.16;6281459;22;20007;-76
2024/02/07 09:45:19;;;;;;;0.00;0.00;;;;;;;6.47;100.00;99304.13;6277886;22;20033;-78
2024/02/07 09:48:40;;;;;;;0.00;0.00;;;;;;;6.35;100.00;99277.22;6279837;22;20015;-81
2024/02/07 09:59:33;;;;;;;0.00;0.00;;;;;;;6.63;100.00;99321.31;6037040;23;20019;-78
2024/02/07 10:02:23;;;;;;;0.00;0.00;;;;;;;6.60;100.00;99333.50;5976057;23;20029;-79
2024/02/07 10:04:51;;;;;;;0.00;0.00;;;;;;;6.44;100.00;99310.91;6070896;23;20037;-75
2024/02/07 10:07:19;;;;;;;0.00;0.00;;;;;;;6.41;100.00;99297.03;6139779;22;20048;-75
2024/02/07 10:10:37;;;;;;;0.00;0.00;;;;;;;6.45;100.00;99300.84;6307192;22;20007;-76
2024/02/07 10:13:24;;;;;;;0.00;0.00;;;;;;;6.40;100.00;99288.06;6276433;22;20030;-75
2024/02/07 10:16:15;;;;;;;0.00;0.00;;;;;;;6.67;100.00;99324.28;6277175;22;20053;-77
2024/02/07 10:18:48;;;;;;;0.00;0.00;;;;;;;6.59;100.00;99312.03;6277566;22;20082;-76
2024/02/07 10:21:13;;;;;;;0.00;0.00;;;;;;;6.60;100.00;99297.34;6306793;22;20003;-76
2024/02/07 10:23:39;;;;;;;0.00;0.00;;;;;;;6.54;100.00;99304.69;6278939;22;20010;-75
2024/02/07 10:26:07;;;;;;;0.00;0.00;;;;;;;6.58;100.00;99324.78;6307800;22;20007;-76
2024/02/07 10:28:32;;;;;;;0.00;0.00;;;;;;;6.55;100.00;99321.81;6252858;22;20007;-76
2024/02/07 10:31:03;;;;;;;0.10;0.10;;;;;;;6.50;100.00;99332.63;6255499;22;20025;-75
2024/02/07 10:33:44;;;;;;;0.00;0.00;;;;;;;6.33;100.00;99298.38;6252563;22;20031;-74
2024/02/07 10:36:11;;;;;;;0.00;0.00;;;;;;;6.50;100.00;99329.91;6246690;22;20007;-75
2024/02/07 10:38:36;;;;;;;0.00;0.00;;;;;;;6.56;100.00;99318.00;6305562;22;20009;-76
2024/02/07 10:41:08;;;;;;;0.10;0.10;;;;;;;6.54;100.00;99310.13;6310064;22;20000;-75
2024/02/07 10:43:35;;;;;;;0.00;0.00;;;;;;;6.71;100.00;99318.03;6279565;22;20027;-76
2024/02/07 10:46:12;;;;;;;0.00;0.00;;;;;;;6.78;100.00;99326.75;6311359;22;19999;-76
2024/02/07 10:48:45;;;;;;;0.00;0.00;;;;;;;6.92;100.00;99348.00;6278110;22;20007;-76
2024/02/07 10:51:11;;;;;;;0.00;0.00;;;;;;;6.90;100.00;99334.66;6280214;22;19999;-75
2024/02/07 10:53:37;;;;;;;0.00;0.00;;;;;;;7.01;100.00;99330.09;6282182;22;20413;-75
2024/02/07 10:56:06;;;;;;;0.00;0.00;;;;;;;7.12;100.00;99330.91;6255987;22;20137;-76
2024/02/07 10:58:34;;;;;;;0.00;0.00;;;;;;;7.31;100.00;99344.78;6281688;22;20003;-75
2024/02/07 11:01:00;;;;;;;0.00;0.00;;;;;;;7.34;100.00;99341.53;6282218;22;19991;-75
2024/02/07 11:03:29;;;;;;;0.00;0.00;;;;;;;7.45;100.00;99345.91;6280826;22;20060;-75
2024/02/07 11:05:55;;;;;;;0.00;0.00;;;;;;;7.51;100.00;99339.34;6308372;22;20006;-75
2024/02/07 11:08:21;;;;;;;0.00;0.00;;;;;;;7.60;100.00;99323.31;6283560;22;20055;-75
2024/02/07 11:10:47;;;;;;;0.00;0.00;;;;;;;7.66;100.00;99315.97;6280763;22;20086;-75
2024/02/07 11:13:13;;;;;;;0.00;0.00;;;;;;;7.61;100.00;99307.81;6284732;22;19999;-76
2024/02/07 11:15:50;;;;;;;0.10;0.10;;;;;;;7.55;100.00;99306.16;6256005;22;20011;-76
2024/02/07 11:18:26;;;;;;;0.00;0.00;;;;;;;7.49;100.00;99281.69;6293741;22;20023;-77
2024/02/07 11:21:26;;;;;;;0.00;0.00;;;;;;;7.26;100.00;99236.03;6306698;22;20025;-75
2024/02/07 11:23:57;;;;;;;0.00;0.00;;;;;;;7.35;100.00;99228.94;6308484;22;20007;-76
2024/02/07 11:26:23;;;;;;;0.00;0.00;;;;;;;7.46;100.00;99235.19;6305990;22;20010;-76
2024/02/07 11:28:49;;;;;;;0.00;0.00;;;;;;;7.64;100.00;99283.59;6306437;22;20002;-75
2024/02/07 11:31:18;;;;;;;0.00;0.00;;;;;;;7.80;100.00;99300.69;6304955;22;20008;-74
2024/02/07 11:33:53;;;;;;;0.00;0.00;;;;;;;7.71;100.00;99305.09;6305843;22;20029;-76
2024/02/07 11:36:20;;;;;;;0.00;0.00;;;;;;;7.59;100.00;99307.25;6304726;22;20011;-75
2024/02/07 11:38:53;;;;;;;0.10;0.10;;;;;;;7.68;100.00;99327.38;6305069;22;20003;-76
2024/02/07 11:41:24;;;;;;;0.05;0.05;;;;;;;7.67;100.00;99320.31;6305712;22;20029;-76
2024/02/07 11:43:50;;;;;;;0.00;0.00;;;;;;;7.74;100.00;99317.31;6307527;22;20004;-76
2024/02/07 11:46:16;;;;;;;0.00;0.00;;;;;;;7.72;100.00;99305.88;6308363;22;20010;-76
2024/02/07 11:48:42;;;;;;;0.00;0.00;;;;;;;7.89;100.00;99319.22;6306904;22;19996;-76
2024/02/07 11:51:11;;;;;;;0.00;0.00;;;;;;;8.16;100.00;99338.75;6308381;22;20093;-75
2024/02/07 11:53:45;;;;;;;0.00;0.00;;;;;;;8.21;100.00;99319.66;6306584;22;20018;-76
2024/02/07 11:56:21;;;;;;;0.08;0.08;;;;;;;8.27;100.00;99300.59;6308586;22;20125;-76
2024/02/07 11:58:50;;;;;;;0.00;0.00;;;;;;;8.41;100.00;99301.63;6303691;22;20094;-75
2024/02/07 12:01:45;;;;;;;0.00;0.00;;;;;;;8.39;100.00;99303.78;6308691;22;19999;-73
2024/02/07 12:04:13;;;;;;;0.00;0.00;;;;;;;8.16;100.00;99273.38;6296164;22;20372;-72
2024/02/07 12:06:39;;;;;;;0.00;0.00;;;;;;;8.02;100.00;99275.88;6310071;22;20042;-73
2024/02/07 12:09:05;;;;;;;0.00;0.00;;;;;;;8.01;100.00;99292.47;6255675;22;20018;-73
2024/02/07 12:11:31;;;;;;;0.00;0.00;;;;;;;8.02;100.00;99305.81;6283097;22;20012;-73
2024/02/07 12:14:09;;;;;;;;;;;;;;;;;;;;;
2024/02/07 12:16:36;;;;;;;0.00;0.00;;;;;;;7.95;100.00;99309.94;6306904;22;20376;-72
2024/02/07 12:19:09;;;;;;;0.00;0.00;;;;;;;8.06;100.00;99327.88;6308416;22;20021;-73
2024/02/07 12:21:35;;;;;;;0.10;0.10;;;;;;;8.02;100.00;99305.81;6281609;22;20013;-73
2024/02/07 12:24:10;;;;;;;0.00;0.00;;;;;;;8.01;100.00;99281.59;6307514;22;20003;-73
2024/02/07 12:26:46;;;;;;;0.00;0.00;;;;;;;8.03;100.00;99268.50;6306817;22;20003;-72
2024/02/07 12:29:11;;;;;;;0.00;0.00;;;;;;;8.13;100.00;99279.41;6307589;22;20007;-73
2024/02/07 12:31:37;;;;;;;0.00;0.00;;;;;;;8.34;100.00;99301.09;6280295;22;20038;-72
2024/02/07 12:34:02;;;;;;;0.00;0.00;;;;;;;8.40;100.00;99278.19;6280985;22;20007;-74
2024/02/07 12:36:28;;;;;;;0.00;0.00;;;;;;;8.69;100.00;99280.25;6304095;22;20015;-73
2024/02/07 12:38:54;;;;;;;0.00;0.00;;;;;;;8.97;100.00;99303.25;6311153;22;19999;-73
2024/02/07 12:41:26;;;;;;;0.00;0.00;;;;;;;8.96;100.00;99273.53;6307743;22;20433;-73
2024/02/07 12:43:55;;;;;;;0.00;0.00;;;;;;;9.24;100.00;99297.34;6308656;22;20007;-73
2024/02/07 12:46:23;;;;;;;0.00;0.00;;;;;;;9.32;100.00;99273.28;6282067;22;20007;-73
2024/02/07 12:48:52;;;;;;;0.00;0.00;;;;;;;9.66;100.00;99302.44;6279870;22;20007;-73
2024/02/07 12:51:17;;;;;;;0.00;0.00;;;;;;;9.62;100.00;99310.38;6255956;22;20034;-74
2024/02/07 12:53:46;;;;;;;0.00;0.00;;;;;;;9.41;100.00;99282.47;6309704;22;20688;-77
2024/02/07 12:56:23;;;;;;;0.10;0.10;;;;;;;9.33;100.00;99280.34;6286138;22;20377;-75
2024/02/07 12:59:03;;;;;;;0.00;0.00;;;;;;;8.88;100.00;99240.31;6307757;22;19991;-72
2024/02/07 13:01:31;;;;;;;0.00;0.00;;;;;;;9.00;100.00;99258.25;6308567;22;20003;-72